Time;durP1;ratioP1;P1;durP2;ratioP2;P2;SDS_P1;SDS_P2;PMS_P1;PMS_P2;Temp;Humidity;BMP_temperature;BMP_pressure;BME280_temperature;BME280_humidity;BME280_pressure;Samples;Min_cycle;Max_cycle;Signal;HPM_P1;HPM_P2
2021/07/01 00:00:53;;;;;;;;;27.75;23.25;;;;;;;;8601871;41;11795;-65
2021/07/01 00:06:55;;;;;;;;;24.00;23.00;;;;;;;;8578345;41;11335;-65
2021/07/01 00:12:57;;;;;;;;;23.00;21.75;;;;;;;;8578658;41;11195;-64
2021/07/01 00:18:59;;;;;;;;;25.50;24.75;;;;;;;;8580899;41;10776;-64
2021/07/01 00:25:06;;;;;;;;;28.50;27.00;;;;;;;;8590744;41;10909;-65
2021/07/01 00:31:08;;;;;;;;;28.50;25.25;;;;;;;;8602936;41;11278;-65
2021/07/01 00:37:10;;;;;;;;;29.25;26.50;;;;;;;;8606612;41;10950;-66
2021/07/01 00:43:13;;;;;;;;;26.50;25.75;;;;;;;;8591335;41;11262;-65
2021/07/01 00:49:16;;;;;;;;;26.50;25.50;;;;;;;;8583453;41;11147;-66
2021/07/01 00:55:17;;;;;;;;;27.00;24.25;;;;;;;;8583641;41;10876;-66
2021/07/01 01:01:21;;;;;;;;;20.25;20.25;;;;;;;;8583890;41;10864;-65
2021/07/01 01:07:23;;;;;;;;;24.00;21.00;;;;;;;;8582043;41;11084;-66
2021/07/01 01:13:26;;;;;;;;;20.75;19.75;;;;;;;;8590533;41;11092;-64
2021/07/01 01:19:48;;;;;;;;;18.00;17.00;;;;;;;;8584191;41;10924;-64
2021/07/01 01:25:55;;;;;;;;;24.00;20.75;;;;;;;;8584864;41;11005;-65
2021/07/01 01:31:59;;;;;;;;;27.50;23.50;;;;;;;;8593741;41;10984;-65
2021/07/01 01:38:02;;;;;;;;;22.00;20.75;;;;;;;;8592902;41;11052;-65
2021/07/01 01:44:05;;;;;;;;;22.25;21.50;;;;;;;;8593293;41;10946;-65
2021/07/01 01:50:07;;;;;;;;;23.25;19.50;;;;;;;;8585471;41;10910;-65
2021/07/01 01:56:36;;;;;;;;;19.25;17.00;;;;;;;;8593848;41;10929;-66
2021/07/01 02:02:42;;;;;;;;;21.00;20.25;;;;;;;;8593439;41;11006;-65
2021/07/01 02:09:04;;;;;;;;;26.25;18.75;;;;;;;;8585769;41;11154;-65
2021/07/01 02:15:21;;;;;;;;;25.00;22.00;;;;;;;;8586386;41;11281;-65
2021/07/01 02:21:24;;;;;;;;;16.50;14.25;;;;;;;;8585206;41;11139;-65
2021/07/01 02:27:27;;;;;;;;;29.50;26.00;;;;;;;;8607180;41;11698;-65
2021/07/01 02:33:30;;;;;;;;;26.00;24.00;;;;;;;;8607714;41;10912;-65
2021/07/01 02:39:32;;;;;;;;;22.00;20.67;;;;;;;;8608537;41;11031;-64
2021/07/01 02:45:34;;;;;;;;;27.33;21.00;;;;;;;;8608392;41;10794;-65
2021/07/01 02:51:41;;;;;;;;;23.50;23.50;;;;;;;;8608582;41;11090;-65
2021/07/01 02:57:43;;;;;;;;;21.00;21.00;;;;;;;;8608659;41;11129;-65
2021/07/01 03:03:47;;;;;;;;;22.00;18.75;;;;;;;;8606837;41;11240;-65
2021/07/01 03:09:53;;;;;;;;;14.25;14.25;;;;;;;;8595828;41;11284;-65
2021/07/01 03:15:56;;;;;;;;;18.50;18.25;;;;;;;;8591830;41;11634;-65
2021/07/01 03:21:58;;;;;;;;;21.00;18.75;;;;;;;;8585348;41;11102;-66
2021/07/01 03:28:01;;;;;;;;;16.00;15.25;;;;;;;;8588467;41;11523;-65
2021/07/01 03:34:02;;;;;;;;;22.00;22.00;;;;;;;;8606941;41;11271;-65
2021/07/01 03:40:09;;;;;;;;;18.25;17.25;;;;;;;;8591920;41;11082;-65
2021/07/01 03:46:16;;;;;;;;;23.00;22.00;;;;;;;;8606457;41;11075;-65
2021/07/01 03:52:19;;;;;;;;;20.33;18.67;;;;;;;;8607129;41;10823;-65
2021/07/01 03:58:26;;;;;;;;;22.67;22.00;;;;;;;;8606570;41;10377;-66
2021/07/01 04:04:45;;;;;;;;;23.67;22.67;;;;;;;;9548170;24;10672;-64
2021/07/01 04:10:47;;;;;;;;;23.75;20.25;;;;;;;;8623690;41;11035;-63
2021/07/01 04:16:51;;;;;;;;;25.25;24.25;;;;;;;;8610803;41;11101;-63
2021/07/01 04:23:12;;;;;;;;;24.75;23.00;;;;;;;;8609688;41;11000;-64
2021/07/01 04:29:32;;;;;;;;;25.50;25.50;;;;;;;;8586940;41;11109;-62
2021/07/01 04:35:35;;;;;;;;;21.25;19.00;;;;;;;;8603037;41;11122;-64
2021/07/01 04:41:37;;;;;;;;;18.75;18.75;;;;;;;;8624821;41;11094;-64
2021/07/01 04:47:39;;;;;;;;;26.00;23.25;;;;;;;;8632468;41;10981;-65
2021/07/01 04:53:41;;;;;;;;;18.50;16.75;;;;;;;;8626225;41;10870;-64
2021/07/01 05:00:04;;;;;;;;;19.50;19.50;;;;;;;;8588452;41;11052;-65
2021/07/01 05:06:24;;;;;;;;;23.00;21.50;;;;;;;;8608342;41;11118;-64
2021/07/01 05:12:28;;;;;;;;;25.00;22.75;;;;;;;;8629405;41;10870;-64
2021/07/01 05:18:31;;;;;;;;;24.00;19.75;;;;;;;;8601608;41;10929;-65
2021/07/01 05:24:50;;;;;;;;;25.00;23.50;;;;;;;;8596042;41;10851;-64
2021/07/01 05:30:59;;;;;;;;;29.00;23.25;;;;;;;;8612007;41;10982;-62
2021/07/01 05:37:29;;;;;;;;;27.00;25.75;;;;;;;;8615506;41;10975;-63
2021/07/01 05:43:36;;;;;;;;;28.50;26.25;;;;;;;;8610392;41;10805;-63
2021/07/01 05:49:43;;;;;;;;;29.25;26.75;;;;;;;;8621323;41;10826;-63
2021/07/01 05:55:45;;;;;;;;;29.25;25.00;;;;;;;;8611359;41;10774;-65
2021/07/01 06:01:47;;;;;;;;;29.00;26.50;;;;;;;;8609283;41;10898;-64
2021/07/01 06:07:52;;;;;;;;;25.25;21.25;;;;;;;;8609653;41;10881;-62
2021/07/01 06:13:55;;;;;;;;;24.25;21.75;;;;;;;;8599151;41;10684;-64
2021/07/01 06:19:58;;;;;;;;;27.25;25.50;;;;;;;;8599704;41;10949;-62
2021/07/01 06:26:00;;;;;;;;;24.00;24.00;;;;;;;;8601435;41;10808;-64
2021/07/01 06:32:02;;;;;;;;;30.25;28.50;;;;;;;;8600967;41;10772;-64
2021/07/01 06:38:12;;;;;;;;;28.00;28.00;;;;;;;;8599271;41;10673;-63
2021/07/01 06:44:36;;;;;;;;;26.25;24.00;;;;;;;;8590636;41;10754;-65
2021/07/01 06:50:58;;;;;;;;;26.25;24.50;;;;;;;;8606681;41;10653;-64
2021/07/01 06:57:19;;;;;;;;;14.00;14.00;;;;;;;;8139146;41;10001795;-64
2021/07/01 07:03:28;;;;;;;;;23.00;22.00;;;;;;;;8627245;41;11083;-65
2021/07/01 07:09:30;;;;;;;;;20.75;20.75;;;;;;;;8605649;41;10654;-64
2021/07/01 07:15:33;;;;;;;;;23.25;21.25;;;;;;;;8609956;41;10956;-63
2021/07/01 07:21:53;;;;;;;;;23.00;23.00;;;;;;;;8606533;41;10716;-63
2021/07/01 07:28:04;;;;;;;;;20.25;19.25;;;;;;;;8611762;41;11263;-65
2021/07/01 07:34:06;;;;;;;;;19.25;19.25;;;;;;;;8618341;41;11115;-66
2021/07/01 07:40:09;;;;;;;;;26.25;20.75;;;;;;;;8615570;41;11002;-63
2021/07/01 07:46:11;;;;;;;;;22.25;21.25;;;;;;;;8597870;41;10841;-64
2021/07/01 07:52:14;;;;;;;;;21.50;20.25;;;;;;;;8608322;41;10789;-65
2021/07/01 07:58:17;;;;;;;;;21.00;19.00;;;;;;;;8602362;41;11536;-66
2021/07/01 08:04:22;;;;;;;;;18.25;17.25;;;;;;;;8595487;41;10830;-65
2021/07/01 08:10:34;;;;;;;;;21.75;17.00;;;;;;;;8602455;41;11213;-64
2021/07/01 08:16:37;;;;;;;;;24.00;22.00;;;;;;;;8605683;41;10727;-66
2021/07/01 08:22:42;;;;;;;;;20.50;20.25;;;;;;;;8607836;41;10781;-62
2021/07/01 08:28:44;;;;;;;;;26.00;25.00;;;;;;;;8607361;41;11246;-66
2021/07/01 08:34:47;;;;;;;;;22.25;20.50;;;;;;;;8608732;41;11366;-62
2021/07/01 08:40:50;;;;;;;;;25.00;24.00;;;;;;;;8601891;41;10703;-62
2021/07/01 08:47:07;;;;;;;;;21.00;21.00;;;;;;;;8607468;41;10621;-62
2021/07/01 08:53:32;;;;;;;;;28.25;23.25;;;;;;;;8604506;41;10836;-62
2021/07/01 08:59:42;;;;;;;;;26.75;26.50;;;;;;;;8603183;41;10771;-63
2021/07/01 09:05:46;;;;;;;;;33.75;26.25;;;;;;;;8600791;41;11155;-62
2021/07/01 09:11:49;;;;;;;;;26.25;24.75;;;;;;;;8602916;41;10729;-62
2021/07/01 09:17:52;;;;;;;;;31.25;26.75;;;;;;;;8601783;41;11273;-62
2021/07/01 09:23:57;;;;;;;;;26.00;25.25;;;;;;;;8601859;41;10844;-62
2021/07/01 09:30:01;;;;;;;;;25.50;24.25;;;;;;;;8609756;41;10781;-62
2021/07/01 09:36:03;;;;;;;;;17.50;16.25;;;;;;;;8612419;41;10657;-62
2021/07/01 09:42:07;;;;;;;;;25.75;25.75;;;;;;;;8608171;41;11566;-61
2021/07/01 09:48:12;;;;;;;;;23.75;23.00;;;;;;;;8610032;41;11401;-62
2021/07/01 09:54:20;;;;;;;;;28.00;24.50;;;;;;;;8601406;41;11000;-62
2021/07/01 10:00:27;;;;;;;;;26.50;21.25;;;;;;;;8602676;41;11717;-61
2021/07/01 10:06:29;;;;;;;;;23.75;23.50;;;;;;;;8603133;41;10779;-62
2021/07/01 10:12:33;;;;;;;;;23.75;22.50;;;;;;;;8604444;41;10850;-62
2021/07/01 10:18:43;;;;;;;;;23.50;22.25;;;;;;;;8602735;41;10892;-61
2021/07/01 10:24:50;;;;;;;;;24.75;24.50;;;;;;;;8611304;41;10743;-61
2021/07/01 10:31:01;;;;;;;;;22.50;22.50;;;;;;;;8603065;41;10724;-61
2021/07/01 10:37:25;;;;;;;;;26.75;24.25;;;;;;;;8611951;41;10813;-62
2021/07/01 10:43:40;;;;;;;;;27.00;25.75;;;;;;;;8610558;41;10742;-60
2021/07/01 10:49:42;;;;;;;;;28.00;25.50;;;;;;;;8616821;41;10757;-62
2021/07/01 10:56:25;;;;;;;;;25.50;24.00;;;;;;;;8134813;41;10001313;-61
2021/07/01 11:02:29;;;;;;;;;25.50;25.50;;;;;;;;8607297;41;10714;-63
2021/07/01 11:08:34;;;;;;;;;26.00;24.25;;;;;;;;8612884;41;10735;-61
2021/07/01 11:14:40;;;;;;;;;30.75;26.25;;;;;;;;8613196;41;10746;-61
2021/07/01 11:20:43;;;;;;;;;23.75;23.75;;;;;;;;8613785;41;10781;-61
2021/07/01 11:26:48;;;;;;;;;28.50;24.00;;;;;;;;8609912;41;10784;-63
2021/07/01 11:33:14;;;;;;;;;27.25;25.50;;;;;;;;8608832;41;11077;-62
2021/07/01 11:39:22;;;;;;;;;26.75;25.00;;;;;;;;8617130;41;10820;-63
2021/07/01 11:45:25;;;;;;;;;26.50;24.50;;;;;;;;8612773;41;10890;-61
2021/07/01 11:51:27;;;;;;;;;25.25;21.75;;;;;;;;8606094;41;10794;-61
2021/07/01 11:57:30;;;;;;;;;32.25;28.75;;;;;;;;8599861;41;11297;-62
2021/07/01 12:03:35;;;;;;;;;24.00;23.00;;;;;;;;8604376;41;10715;-62
2021/07/01 12:09:41;;;;;;;;;25.50;22.00;;;;;;;;8607627;41;11277;-61
2021/07/01 12:16:03;;;;;;;;;19.50;18.75;;;;;;;;8604807;41;11680;-61
2021/07/01 12:22:05;;;;;;;;;27.25;24.75;;;;;;;;8604985;41;11446;-62
2021/07/01 12:28:10;;;;;;;;;22.00;21.50;;;;;;;;8604608;41;11307;-61
2021/07/01 12:34:19;;;;;;;;;24.00;24.00;;;;;;;;8605827;41;10920;-63
2021/07/01 12:40:27;;;;;;;;;19.50;18.25;;;;;;;;8605319;41;10747;-62
2021/07/01 12:46:45;;;;;;;;;26.25;24.25;;;;;;;;8603939;41;10730;-61
2021/07/01 12:52:47;;;;;;;;;26.00;23.75;;;;;;;;8603924;41;10716;-63
2021/07/01 12:58:49;;;;;;;;;22.25;20.50;;;;;;;;8610456;41;10896;-61
2021/07/01 13:04:59;;;;;;;;;23.00;19.50;;;;;;;;8617130;41;10936;-62
2021/07/01 13:11:04;;;;;;;;;23.50;19.75;;;;;;;;8597223;41;10676;-62
2021/07/01 13:17:15;;;;;;;;;21.75;19.00;;;;;;;;8605942;41;11341;-63
2021/07/01 13:23:19;;;;;;;;;17.00;17.00;;;;;;;;8618302;41;10727;-61
2021/07/01 13:29:42;;;;;;;;;21.25;21.25;;;;;;;;8609019;41;10703;-63
2021/07/01 13:35:49;;;;;;;;;18.25;18.25;;;;;;;;8606709;41;10667;-62
2021/07/01 13:41:51;;;;;;;;;18.75;17.75;;;;;;;;8613740;41;10737;-60
2021/07/01 13:47:56;;;;;;;;;15.50;15.50;;;;;;;;8633302;41;10622;-62
2021/07/01 13:54:11;;;;;;;;;20.25;20.25;;;;;;;;8624402;41;10757;-62
2021/07/01 14:00:25;;;;;;;;;16.50;16.00;;;;;;;;8608821;41;11209;-61
2021/07/01 14:06:27;;;;;;;;;19.00;19.00;;;;;;;;8590595;41;10742;-61
2021/07/01 14:12:29;;;;;;;;;18.00;15.00;;;;;;;;8594858;41;10742;-62
2021/07/01 14:18:35;;;;;;;;;20.25;20.25;;;;;;;;8594012;41;10774;-62
2021/07/01 14:24:37;;;;;;;;;20.00;18.00;;;;;;;;8581203;41;10937;-60
2021/07/01 14:30:50;;;;;;;;;20.00;18.75;;;;;;;;8583733;41;10695;-64
2021/07/01 14:36:54;;;;;;;;;23.25;20.25;;;;;;;;8590121;41;10861;-62
2021/07/01 14:43:04;;;;;;;;;19.75;18.00;;;;;;;;8608993;41;11343;-63
2021/07/01 14:49:21;;;;;;;;;14.75;14.75;;;;;;;;8609274;41;10635;-62
2021/07/01 14:55:23;;;;;;;;;18.75;16.25;;;;;;;;8609809;41;10697;-63
2021/07/01 15:01:24;;;;;;;;;19.25;18.50;;;;;;;;8604976;41;10726;-62
2021/07/01 15:07:42;;;;;;;;;19.75;16.00;;;;;;;;8592240;41;10839;-61
2021/07/01 15:13:45;;;;;;;;;19.00;18.00;;;;;;;;8584809;41;10715;-61
2021/07/01 15:19:48;;;;;;;;;16.50;16.50;;;;;;;;8589921;41;10686;-63
2021/07/01 15:25:50;;;;;;;;;14.75;14.75;;;;;;;;8593541;41;10621;-62
2021/07/01 15:31:52;;;;;;;;;19.50;19.00;;;;;;;;8598618;41;10912;-61
2021/07/01 15:37:54;;;;;;;;;19.00;18.75;;;;;;;;8600936;41;11385;-62
2021/07/01 15:43:55;;;;;;;;;17.75;17.00;;;;;;;;8608722;41;10617;-61
2021/07/01 15:49:57;;;;;;;;;20.00;17.75;;;;;;;;8608339;41;10690;-63
2021/07/01 15:55:59;;;;;;;;;19.00;16.75;;;;;;;;8607839;41;10917;-64
2021/07/01 16:02:02;;;;;;;;;19.75;18.00;;;;;;;;8607373;41;10931;-62
2021/07/01 16:08:07;;;;;;;;;19.25;16.75;;;;;;;;8608776;41;10718;-63
2021/07/01 16:14:12;;;;;;;;;19.00;15.75;;;;;;;;8596735;41;10968;-63
2021/07/01 16:20:22;;;;;;;;;15.75;12.75;;;;;;;;8591979;41;10890;-61
2021/07/01 16:26:26;;;;;;;;;17.50;16.50;;;;;;;;8591200;41;10946;-61
2021/07/01 16:32:28;;;;;;;;;19.25;17.75;;;;;;;;8605146;41;10673;-60
2021/07/01 16:38:32;;;;;;;;;17.00;15.75;;;;;;;;8604846;41;10963;-62
2021/07/01 16:44:34;;;;;;;;;15.00;15.00;;;;;;;;8601329;41;11144;-60
2021/07/01 16:50:40;;;;;;;;;19.00;17.50;;;;;;;;8603358;41;10953;-61
2021/07/01 16:56:49;;;;;;;;;15.50;14.75;;;;;;;;8599235;41;11052;-61
2021/07/01 17:02:52;;;;;;;;;19.50;18.50;;;;;;;;8586942;41;10683;-62
2021/07/01 17:08:56;;;;;;;;;21.25;21.25;;;;;;;;8586925;41;10758;-60
2021/07/01 17:14:58;;;;;;;;;23.75;22.00;;;;;;;;8596739;41;11276;-62
2021/07/01 17:21:02;;;;;;;;;21.00;21.00;;;;;;;;8609722;41;10684;-62
2021/07/01 17:27:04;;;;;;;;;17.25;15.50;;;;;;;;8610606;41;11184;-63
2021/07/01 17:33:06;;;;;;;;;14.00;14.00;;;;;;;;8610870;41;10692;-61
2021/07/01 17:39:08;;;;;;;;;11.25;9.25;;;;;;;;8609961;41;11276;-61
2021/07/01 17:45:10;;;;;;;;;13.25;13.25;;;;;;;;8610715;41;10689;-60
2021/07/01 17:51:12;;;;;;;;;16.50;16.50;;;;;;;;8593472;41;10788;-60
2021/07/01 17:57:14;;;;;;;;;11.00;11.00;;;;;;;;8588291;41;10714;-62
2021/07/01 18:03:18;;;;;;;;;11.50;11.50;;;;;;;;8584676;41;11117;-63
2021/07/01 18:09:35;;;;;;;;;13.75;12.25;;;;;;;;8585775;41;10664;-62
2021/07/01 18:15:42;;;;;;;;;7.50;7.50;;;;;;;;8586919;41;10845;-60
2021/07/01 18:21:45;;;;;;;;;9.00;9.00;;;;;;;;8586367;41;10600;-61
2021/07/01 18:27:47;;;;;;;;;9.50;7.75;;;;;;;;8585046;41;10812;-62
2021/07/01 18:33:48;;;;;;;;;5.75;5.75;;;;;;;;8585938;41;10772;-60
2021/07/01 18:39:51;;;;;;;;;4.50;4.50;;;;;;;;8586306;41;10602;-60
2021/07/01 18:45:59;;;;;;;;;5.75;5.50;;;;;;;;8585695;41;10856;-61
2021/07/01 18:52:03;;;;;;;;;8.50;8.50;;;;;;;;8587248;41;10640;-60
2021/07/01 18:58:06;;;;;;;;;10.00;8.00;;;;;;;;8585803;41;10691;-61
2021/07/01 19:04:08;;;;;;;;;9.00;7.25;;;;;;;;8587986;41;10654;-61
2021/07/01 19:10:10;;;;;;;;;10.75;8.25;;;;;;;;8585393;41;10645;-60
2021/07/01 19:16:12;;;;;;;;;7.00;7.00;;;;;;;;8595356;41;10779;-60
2021/07/01 19:22:14;;;;;;;;;10.75;10.00;;;;;;;;8608442;41;10752;-62
2021/07/01 19:28:16;;;;;;;;;6.00;6.00;;;;;;;;8597694;41;10599;-61
2021/07/01 19:34:19;;;;;;;;;12.25;10.00;;;;;;;;8585893;41;10755;-61
2021/07/01 19:40:22;;;;;;;;;9.50;8.50;;;;;;;;8585179;41;10631;-60
2021/07/01 19:46:26;;;;;;;;;5.75;5.25;;;;;;;;8584980;41;10657;-61
2021/07/01 19:52:28;;;;;;;;;6.25;5.25;;;;;;;;8585995;41;10678;-61
2021/07/01 19:58:36;;;;;;;;;7.00;5.25;;;;;;;;8584598;41;10769;-61
2021/07/01 20:04:39;;;;;;;;;3.25;3.25;;;;;;;;8585142;41;10567;-60
2021/07/01 20:10:42;;;;;;;;;4.75;4.75;;;;;;;;8586071;41;10710;-61
2021/07/01 20:16:44;;;;;;;;;5.25;5.25;;;;;;;;8107826;41;20001995;-62
2021/07/01 20:22:48;;;;;;;;;6.00;6.00;;;;;;;;8584402;41;10624;-61
2021/07/01 20:28:50;;;;;;;;;5.75;5.75;;;;;;;;8596824;41;11586;-61
2021/07/01 20:34:52;;;;;;;;;4.00;4.00;;;;;;;;8607658;41;10517;-60
2021/07/01 20:40:54;;;;;;;;;7.50;5.25;;;;;;;;8608775;41;10577;-62
2021/07/01 20:46:56;;;;;;;;;4.75;3.00;;;;;;;;8607179;41;10693;-61
2021/07/01 20:52:59;;;;;;;;;6.00;5.00;;;;;;;;8607208;41;10525;-61
2021/07/01 20:59:04;;;;;;;;;5.00;5.00;;;;;;;;8606852;41;10733;-62
2021/07/01 21:05:06;;;;;;;;;6.00;4.00;;;;;;;;8606724;41;10866;-61
2021/07/01 21:11:09;;;;;;;;;4.75;3.25;;;;;;;;8606560;41;10613;-60
2021/07/01 21:17:12;;;;;;;;;8.75;7.25;;;;;;;;8593030;41;10664;-62
2021/07/01 21:23:16;;;;;;;;;8.75;8.75;;;;;;;;8582958;41;10798;-58
2021/07/01 21:29:18;;;;;;;;;9.75;8.50;;;;;;;;8595003;41;10769;-61
2021/07/01 21:35:21;;;;;;;;;8.25;8.25;;;;;;;;8588444;41;10777;-61
2021/07/01 21:41:26;;;;;;;;;12.50;12.25;;;;;;;;8592267;41;11492;-60
2021/07/01 21:47:30;;;;;;;;;14.00;12.00;;;;;;;;8609577;41;11259;-61
2021/07/01 21:53:32;;;;;;;;;9.75;9.75;;;;;;;;8610080;41;10752;-62
2021/07/01 21:59:37;;;;;;;;;5.75;5.75;;;;;;;;8609904;41;10642;-61
2021/07/01 22:05:39;;;;;;;;;7.25;7.25;;;;;;;;8610356;41;11446;-62
2021/07/01 22:11:46;;;;;;;;;9.00;7.00;;;;;;;;8609542;41;10790;-61
2021/07/01 22:17:52;;;;;;;;;7.50;6.00;;;;;;;;8596513;41;10917;-60
2021/07/01 22:23:54;;;;;;;;;6.25;6.25;;;;;;;;8604103;41;10639;-61
2021/07/01 22:29:56;;;;;;;;;6.00;5.50;;;;;;;;8610151;41;10717;-60
2021/07/01 22:36:00;;;;;;;;;10.75;10.75;;;;;;;;8609076;41;10745;-59
2021/07/01 22:42:03;;;;;;;;;7.75;7.75;;;;;;;;8608106;41;10672;-60
2021/07/01 22:48:06;;;;;;;;;8.50;7.50;;;;;;;;8608551;41;10902;-59
2021/07/01 22:54:08;;;;;;;;;7.50;6.75;;;;;;;;8608606;41;10543;-60
2021/07/01 23:00:13;;;;;;;;;10.50;8.25;;;;;;;;8607106;41;10930;-62
2021/07/01 23:06:15;;;;;;;;;8.00;7.00;;;;;;;;8609814;41;10776;-61
2021/07/01 23:12:18;;;;;;;;;5.75;5.75;;;;;;;;8607710;41;10871;-60
2021/07/01 23:18:20;;;;;;;;;8.25;8.25;;;;;;;;8607794;41;10607;-60
2021/07/01 23:24:22;;;;;;;;;8.00;8.00;;;;;;;;8602253;41;10774;-59
2021/07/01 23:30:24;;;;;;;;;9.00;8.00;;;;;;;;8608159;41;11170;-61
2021/07/01 23:36:26;;;;;;;;;10.75;7.75;;;;;;;;8608939;41;10807;-60
2021/07/01 23:42:28;;;;;;;;;11.00;9.75;;;;;;;;8608385;41;11103;-60
2021/07/01 23:48:29;;;;;;;;;11.25;11.25;;;;;;;;8607768;41;10811;-59
2021/07/01 23:54:31;;;;;;;;;8.50;7.00;;;;;;;;8607653;41;10720;-60
